TimeEDT,TemperatureF,Dew PointF,Humidity,Sea Level PressureIn,VisibilityMPH,Wind Direction,Wind SpeedMPH,Gust SpeedMPH,PrecipitationIn,Events,Conditions,WindDirDegrees,DateUTC
12:15 AM,62.6,60.8,94,30.03,9.0,Calm,Calm,-,N/A,,Scattered Clouds,0,2012-10-05 04:15:00
12:35 AM,59.0,57.2,94,30.03,1.0,Calm,Calm,-,N/A,,Overcast,0,2012-10-05 04:35:00
1:15 AM,59.0,57.2,94,30.03,4.0,Calm,Calm,-,N/A,,Overcast,0,2012-10-05 05:15:00
1:35 AM,57.2,55.4,94,30.03,1.0,Calm,Calm,-,N/A,,Overcast,0,2012-10-05 05:35:00
1:55 AM,59.0,57.2,94,30.03,0.5,Calm,Calm,-,N/A,,Overcast,0,2012-10-05 05:55:00
2:35 AM,60.8,57.2,88,30.02,1.0,Calm,Calm,-,N/A,,Overcast,0,2012-10-05 06:35:00
2:55 AM,60.8,57.2,88,30.01,1.2,Calm,Calm,-,N/A,,Overcast,0,2012-10-05 06:55:00
3:15 AM,59.0,57.2,94,30.01,3.0,Calm,Calm,-,N/A,,Overcast,0,2012-10-05 07:15:00
3:35 AM,59.0,57.2,94,30.02,2.0,SW,3.5,-,N/A,,Overcast,220,2012-10-05 07:35:00
3:55 AM,59.0,57.2,94,30.02,3.0,SSW,3.5,-,N/A,,Overcast,210,2012-10-05 07:55:00
4:35 AM,59.0,57.2,94,30.02,1.2,West,3.5,-,N/A,,Overcast,260,2012-10-05 08:35:00
4:55 AM,57.2,55.4,94,30.02,1.2,Calm,Calm,-,N/A,,Overcast,0,2012-10-05 08:55:00
5:15 AM,57.2,55.4,94,30.02,2.5,Calm,Calm,-,N/A,,Overcast,0,2012-10-05 09:15:00
5:35 AM,57.2,55.4,94,30.01,4.0,SW,3.5,-,N/A,,Overcast,220,2012-10-05 09:35:00
5:55 AM,57.2,55.4,94,30.02,5.0,Calm,Calm,-,N/A,,Overcast,0,2012-10-05 09:55:00
6:15 AM,57.2,55.4,94,30.02,5.0,WSW,3.5,-,N/A,,Overcast,250,2012-10-05 10:15:00
6:35 AM,57.2,55.4,94,30.02,5.0,West,3.5,-,N/A,,Overcast,270,2012-10-05 10:35:00
6:55 AM,57.2,55.4,94,30.03,4.0,Calm,Calm,-,N/A,,Overcast,0,2012-10-05 10:55:00
7:15 AM,57.2,55.4,94,30.02,4.0,Calm,Calm,-,N/A,,Overcast,0,2012-10-05 11:15:00
7:35 AM,57.2,55.4,94,30.03,4.0,Calm,Calm,-,N/A,,Overcast,0,2012-10-05 11:35:00
7:55 AM,57.2,55.4,94,30.02,5.0,Calm,Calm,-,N/A,,Overcast,0,2012-10-05 11:55:00
8:15 AM,57.2,55.4,94,30.03,4.0,Calm,Calm,-,N/A,,Overcast,0,2012-10-05 12:15:00
8:35 AM,57.2,55.4,94,30.03,6.0,Calm,Calm,-,N/A,,Overcast,0,2012-10-05 12:35:00
8:55 AM,57.2,55.4,94,30.03,7.0,Calm,Calm,-,N/A,,Overcast,0,2012-10-05 12:55:00
9:15 AM,57.2,55.4,94,30.03,7.0,Calm,Calm,-,N/A,,Overcast,0,2012-10-05 13:15:00
9:35 AM,59.0,55.4,88,30.03,9.0,Calm,Calm,-,N/A,,Overcast,0,2012-10-05 13:35:00
9:55 AM,59.0,55.4,88,30.03,10.0,Calm,Calm,-,N/A,,Mostly Cloudy,0,2012-10-05 13:55:00
10:15 AM,60.8,55.4,82,30.03,10.0,West,3.5,-,N/A,,Scattered Clouds,280,2012-10-05 14:15:00
10:35 AM,60.8,57.2,88,30.03,10.0,Calm,Calm,-,N/A,,Partly Cloudy,0,2012-10-05 14:35:00
11:15 AM,64.4,57.2,77,30.02,10.0,Calm,Calm,-,N/A,,Partly Cloudy,0,2012-10-05 15:15:00
11:35 AM,64.4,57.2,77,30.01,10.0,Calm,Calm,-,N/A,,Partly Cloudy,0,2012-10-05 15:35:00
11:55 AM,68.0,57.2,68,30.01,10.0,SSW,3.5,-,N/A,,Clear,210,2012-10-05 15:55:00
12:35 PM,69.8,57.2,64,30.00,9.0,WSW,6.9,-,N/A,,Clear,250,2012-10-05 16:35:00
12:55 PM,69.8,55.4,60,29.99,8.0,Calm,Calm,-,N/A,,Clear,0,2012-10-05 16:55:00
1:15 PM,71.6,55.4,57,29.98,10.0,SSW,3.5,-,N/A,,Clear,200,2012-10-05 17:15:00
1:35 PM,71.6,55.4,57,29.97,7.0,Calm,Calm,-,N/A,,Clear,0,2012-10-05 17:35:00
1:55 PM,73.4,55.4,53,29.95,10.0,South,5.8,-,N/A,,Clear,170,2012-10-05 17:55:00
2:35 PM,73.4,55.4,53,29.94,10.0,Calm,Calm,-,N/A,,Clear,0,2012-10-05 18:35:00
2:55 PM,73.4,53.6,50,29.93,10.0,WSW,5.8,-,N/A,,Clear,240,2012-10-05 18:55:00
3:15 PM,75.2,55.4,50,29.93,10.0,South,5.8,-,N/A,,Clear,180,2012-10-05 19:15:00
3:35 PM,75.2,53.6,47,29.93,10.0,SW,8.1,-,N/A,,Clear,220,2012-10-05 19:35:00
3:55 PM,75.2,53.6,47,29.93,10.0,SW,8.1,-,N/A,,Clear,230,2012-10-05 19:55:00
4:15 PM,75.2,55.4,50,29.92,10.0,SSW,8.1,-,N/A,,Clear,200,2012-10-05 20:15:00
4:35 PM,75.2,53.6,47,29.92,10.0,SW,11.5,-,N/A,,Clear,220,2012-10-05 20:35:00
4:55 PM,73.4,53.6,50,29.91,10.0,SSW,8.1,-,N/A,,Clear,200,2012-10-05 20:55:00
5:15 PM,73.4,53.6,50,29.91,10.0,SSW,5.8,-,N/A,,Mostly Cloudy,210,2012-10-05 21:15:00
5:35 PM,73.4,55.4,53,29.91,10.0,SSW,5.8,-,N/A,,Mostly Cloudy,210,2012-10-05 21:35:00
6:15 PM,66.2,59.0,78,29.92,10.0,Calm,Calm,-,N/A,,Partly Cloudy,0,2012-10-05 22:15:00
6:35 PM,64.4,59.0,83,29.92,10.0,Calm,Calm,-,N/A,,Clear,0,2012-10-05 22:35:00
6:55 PM,64.4,59.0,83,29.93,10.0,Calm,Calm,-,N/A,,Mostly Cloudy,0,2012-10-05 22:55:00
7:15 PM,62.6,59.0,88,29.93,10.0,Calm,Calm,-,N/A,,Scattered Clouds,0,2012-10-05 23:15:00
7:35 PM,62.6,57.2,82,29.93,10.0,South,3.5,-,N/A,,Clear,170,2012-10-05 23:35:00
7:55 PM,62.6,57.2,82,29.93,10.0,Calm,Calm,-,N/A,,Clear,0,2012-10-05 23:55:00
8:15 PM,60.8,57.2,88,29.92,10.0,Calm,Calm,-,N/A,,Clear,0,2012-10-06 00:15:00
8:35 PM,60.8,57.2,88,29.93,10.0,Calm,Calm,-,N/A,,Clear,0,2012-10-06 00:35:00
8:55 PM,60.8,57.2,88,29.93,8.0,Calm,Calm,-,N/A,,Clear,0,2012-10-06 00:55:00
9:15 PM,59.0,55.4,88,29.93,7.0,Calm,Calm,-,N/A,,Clear,0,2012-10-06 01:15:00
9:35 PM,57.2,55.4,94,29.93,4.0,Calm,Calm,-,N/A,,Clear,0,2012-10-06 01:35:00
9:55 PM,57.2,55.4,94,29.92,5.0,Calm,Calm,-,N/A,,Mostly Cloudy,0,2012-10-06 01:55:00
10:15 PM,57.2,55.4,94,29.93,9.0,Calm,Calm,-,N/A,,Overcast,0,2012-10-06 02:15:00
10:35 PM,59.0,55.4,88,29.92,8.0,Calm,Calm,-,N/A,,Overcast,0,2012-10-06 02:35:00
10:55 PM,59.0,55.4,88,29.93,8.0,Calm,Calm,-,N/A,,Overcast,0,2012-10-06 02:55:00
11:15 PM,59.0,55.4,88,29.92,10.0,Calm,Calm,-,N/A,,Overcast,0,2012-10-06 03:15:00
11:35 PM,59.0,57.2,94,29.91,8.0,Calm,Calm,-,N/A,,Mostly Cloudy,0,2012-10-06 03:35:00
11:55 PM,59.0,57.2,94,29.91,7.0,Calm,Calm,-,N/A,,Mostly Cloudy,0,2012-10-06 03:55:00